sensor_id;sensor_type;location;lat;lon;timestamp;P1;durP1;ratioP1;P2;durP2;ratioP2
6438;SDS011;3252;52.540;13.290;2023-03-09T00:01:15;14.47;;;12.63;;
6438;SDS011;3252;52.540;13.290;2023-03-09T00:03:19;13.07;;;11.67;;
6438;SDS011;3252;52.540;13.290;2023-03-09T00:05:21;13.73;;;12.07;;
6438;SDS011;3252;52.540;13.290;2023-03-09T00:07:24;13.13;;;11.30;;
6438;SDS011;3252;52.540;13.290;2023-03-09T00:09:26;13.67;;;12.13;;
6438;SDS011;3252;52.540;13.290;2023-03-09T00:11:28;16.03;;;12.93;;
6438;SDS011;3252;52.540;13.290;2023-03-09T00:13:30;16.00;;;13.07;;
6438;SDS011;3252;52.540;13.290;2023-03-09T00:15:34;14.93;;;12.27;;
6438;SDS011;3252;52.540;13.290;2023-03-09T00:17:37;14.63;;;12.20;;
6438;SDS011;3252;52.540;13.290;2023-03-09T00:19:39;13.83;;;12.00;;
6438;SDS011;3252;52.540;13.290;2023-03-09T00:21:41;14.97;;;13.17;;
6438;SDS011;3252;52.540;13.290;2023-03-09T00:23:48;16.77;;;13.43;;
6438;SDS011;3252;52.540;13.290;2023-03-09T00:25:51;16.30;;;13.43;;
6438;SDS011;3252;52.540;13.290;2023-03-09T00:27:53;17.50;;;14.67;;
6438;SDS011;3252;52.540;13.290;2023-03-09T00:29:55;17.90;;;15.27;;
6438;SDS011;3252;52.540;13.290;2023-03-09T00:32:01;17.93;;;14.80;;
6438;SDS011;3252;52.540;13.290;2023-03-09T00:34:06;18.03;;;14.97;;
6438;SDS011;3252;52.540;13.290;2023-03-09T00:36:12;20.63;;;15.63;;
6438;SDS011;3252;52.540;13.290;2023-03-09T00:38:14;22.80;;;16.80;;
6438;SDS011;3252;52.540;13.290;2023-03-09T00:40:17;19.07;;;15.43;;
6438;SDS011;3252;52.540;13.290;2023-03-09T00:42:19;18.53;;;16.33;;
6438;SDS011;3252;52.540;13.290;2023-03-09T00:44:21;20.50;;;16.80;;
6438;SDS011;3252;52.540;13.290;2023-03-09T00:46:24;18.50;;;15.50;;
6438;SDS011;3252;52.540;13.290;2023-03-09T00:48:28;20.83;;;16.17;;
6438;SDS011;3252;52.540;13.290;2023-03-09T00:50:31;21.37;;;16.80;;
6438;SDS011;3252;52.540;13.290;2023-03-09T00:52:37;18.37;;;16.37;;
6438;SDS011;3252;52.540;13.290;2023-03-09T00:54:39;21.93;;;16.17;;
6438;SDS011;3252;52.540;13.290;2023-03-09T00:56:41;20.30;;;15.93;;
6438;SDS011;3252;52.540;13.290;2023-03-09T00:58:44;19.63;;;16.03;;
6438;SDS011;3252;52.540;13.290;2023-03-09T01:00:47;21.13;;;16.20;;
6438;SDS011;3252;52.540;13.290;2023-03-09T01:02:51;19.00;;;15.43;;
6438;SDS011;3252;52.540;13.290;2023-03-09T01:04:57;18.70;;;15.27;;
6438;SDS011;3252;52.540;13.290;2023-03-09T01:06:59;18.80;;;16.03;;
6438;SDS011;3252;52.540;13.290;2023-03-09T01:09:01;19.43;;;16.37;;
6438;SDS011;3252;52.540;13.290;2023-03-09T01:11:04;18.83;;;14.77;;
6438;SDS011;3252;52.540;13.290;2023-03-09T01:13:07;17.80;;;15.83;;
6438;SDS011;3252;52.540;13.290;2023-03-09T01:15:11;20.67;;;16.30;;
6438;SDS011;3252;52.540;13.290;2023-03-09T01:17:13;20.27;;;15.97;;
6438;SDS011;3252;52.540;13.290;2023-03-09T01:19:16;18.33;;;14.73;;
6438;SDS011;3252;52.540;13.290;2023-03-09T01:21:20;18.57;;;15.73;;
6438;SDS011;3252;52.540;13.290;2023-03-09T01:23:23;18.63;;;15.33;;
6438;SDS011;3252;52.540;13.290;2023-03-09T01:25:25;20.47;;;15.63;;
6438;SDS011;3252;52.540;13.290;2023-03-09T01:27:30;18.27;;;14.90;;
6438;SDS011;3252;52.540;13.290;2023-03-09T01:29:34;19.17;;;14.90;;
6438;SDS011;3252;52.540;13.290;2023-03-09T01:31:36;20.33;;;15.57;;
6438;SDS011;3252;52.540;13.290;2023-03-09T01:33:40;18.87;;;15.23;;
6438;SDS011;3252;52.540;13.290;2023-03-09T01:35:43;19.77;;;16.03;;
6438;SDS011;3252;52.540;13.290;2023-03-09T01:37:46;18.77;;;16.40;;
6438;SDS011;3252;52.540;13.290;2023-03-09T01:39:49;20.20;;;16.30;;
6438;SDS011;3252;52.540;13.290;2023-03-09T01:41:51;21.13;;;16.57;;
6438;SDS011;3252;52.540;13.290;2023-03-09T01:43:53;20.97;;;16.60;;
6438;SDS011;3252;52.540;13.290;2023-03-09T01:48:46;18.77;;;16.60;;
6438;SDS011;3252;52.540;13.290;2023-03-09T01:50:50;21.47;;;16.90;;
6438;SDS011;3252;52.540;13.290;2023-03-09T01:52:53;21.67;;;17.83;;
6438;SDS011;3252;52.540;13.290;2023-03-09T01:54:59;22.73;;;17.87;;
6438;SDS011;3252;52.540;13.290;2023-03-09T01:57:06;21.90;;;18.63;;
6438;SDS011;3252;52.540;13.290;2023-03-09T01:59:12;24.00;;;19.17;;
6438;SDS011;3252;52.540;13.290;2023-03-09T02:01:18;22.07;;;18.13;;
6438;SDS011;3252;52.540;13.290;2023-03-09T02:03:22;22.07;;;18.63;;
6438;SDS011;3252;52.540;13.290;2023-03-09T02:05:29;23.53;;;19.13;;
6438;SDS011;3252;52.540;13.290;2023-03-09T02:07:38;23.53;;;19.03;;
6438;SDS011;3252;52.540;13.290;2023-03-09T02:09:47;23.23;;;19.13;;
6438;SDS011;3252;52.540;13.290;2023-03-09T02:11:55;24.50;;;19.70;;
6438;SDS011;3252;52.540;13.290;2023-03-09T02:14:00;24.27;;;19.60;;
6438;SDS011;3252;52.540;13.290;2023-03-09T02:16:03;23.60;;;18.53;;
6438;SDS011;3252;52.540;13.290;2023-03-09T02:18:06;25.23;;;19.67;;
6438;SDS011;3252;52.540;13.290;2023-03-09T02:20:12;22.90;;;18.40;;
6438;SDS011;3252;52.540;13.290;2023-03-09T02:22:18;23.80;;;19.93;;
6438;SDS011;3252;52.540;13.290;2023-03-09T02:24:26;23.57;;;18.53;;
6438;SDS011;3252;52.540;13.290;2023-03-09T02:26:35;25.30;;;18.73;;
6438;SDS011;3252;52.540;13.290;2023-03-09T02:28:43;24.57;;;19.10;;
6438;SDS011;3252;52.540;13.290;2023-03-09T02:30:46;24.67;;;19.57;;
6438;SDS011;3252;52.540;13.290;2023-03-09T02:32:50;23.10;;;20.13;;
6438;SDS011;3252;52.540;13.290;2023-03-09T02:34:52;26.70;;;20.57;;
6438;SDS011;3252;52.540;13.290;2023-03-09T02:36:55;27.60;;;20.53;;
6438;SDS011;3252;52.540;13.290;2023-03-09T02:39:00;24.90;;;20.37;;
6438;SDS011;3252;52.540;13.290;2023-03-09T02:41:07;26.00;;;21.10;;
6438;SDS011;3252;52.540;13.290;2023-03-09T02:43:14;25.20;;;20.87;;
6438;SDS011;3252;52.540;13.290;2023-03-09T02:45:20;28.37;;;22.03;;
6438;SDS011;3252;52.540;13.290;2023-03-09T02:47:24;28.27;;;21.03;;
6438;SDS011;3252;52.540;13.290;2023-03-09T02:49:28;26.33;;;19.97;;
6438;SDS011;3252;52.540;13.290;2023-03-09T02:51:31;26.60;;;19.73;;
6438;SDS011;3252;52.540;13.290;2023-03-09T02:53:33;26.53;;;21.40;;
6438;SDS011;3252;52.540;13.290;2023-03-09T02:55:36;28.17;;;21.70;;
6438;SDS011;3252;52.540;13.290;2023-03-09T02:57:41;28.73;;;21.73;;
6438;SDS011;3252;52.540;13.290;2023-03-09T02:59:49;29.70;;;23.27;;
6438;SDS011;3252;52.540;13.290;2023-03-09T03:01:54;26.47;;;21.40;;
6438;SDS011;3252;52.540;13.290;2023-03-09T03:03:57;27.47;;;22.10;;
6438;SDS011;3252;52.540;13.290;2023-03-09T03:06:01;27.63;;;21.80;;
6438;SDS011;3252;52.540;13.290;2023-03-09T03:08:03;29.50;;;22.43;;
6438;SDS011;3252;52.540;13.290;2023-03-09T03:10:30;29.73;;;22.47;;
6438;SDS011;3252;52.540;13.290;2023-03-09T03:12:34;28.17;;;22.87;;
6438;SDS011;3252;52.540;13.290;2023-03-09T03:14:37;27.07;;;22.83;;
6438;SDS011;3252;52.540;13.290;2023-03-09T03:16:40;30.47;;;23.57;;
6438;SDS011;3252;52.540;13.290;2023-03-09T03:18:44;29.23;;;21.93;;
6438;SDS011;3252;52.540;13.290;2023-03-09T03:20:46;26.60;;;21.63;;
6438;SDS011;3252;52.540;13.290;2023-03-09T03:22:50;28.30;;;21.87;;
6438;SDS011;3252;52.540;13.290;2023-03-09T03:24:57;28.40;;;20.73;;
6438;SDS011;3252;52.540;13.290;2023-03-09T03:26:59;28.07;;;21.57;;
6438;SDS011;3252;52.540;13.290;2023-03-09T03:29:02;29.03;;;20.83;;
6438;SDS011;3252;52.540;13.290;2023-03-09T03:31:05;28.37;;;20.77;;
6438;SDS011;3252;52.540;13.290;2023-03-09T03:33:07;28.77;;;22.83;;
6438;SDS011;3252;52.540;13.290;2023-03-09T03:35:12;30.50;;;21.60;;
6438;SDS011;3252;52.540;13.290;2023-03-09T03:37:18;26.07;;;19.70;;
6438;SDS011;3252;52.540;13.290;2023-03-09T03:39:22;24.93;;;19.97;;
6438;SDS011;3252;52.540;13.290;2023-03-09T03:41:30;30.97;;;20.73;;
6438;SDS011;3252;52.540;13.290;2023-03-09T03:43:35;26.60;;;19.63;;
6438;SDS011;3252;52.540;13.290;2023-03-09T03:45:38;26.97;;;20.17;;
6438;SDS011;3252;52.540;13.290;2023-03-09T03:47:42;25.90;;;19.33;;
6438;SDS011;3252;52.540;13.290;2023-03-09T03:49:44;28.77;;;19.90;;
6438;SDS011;3252;52.540;13.290;2023-03-09T03:51:50;25.30;;;19.13;;
6438;SDS011;3252;52.540;13.290;2023-03-09T03:53:52;24.30;;;19.13;;
6438;SDS011;3252;52.540;13.290;2023-03-09T03:55:55;26.20;;;17.63;;
6438;SDS011;3252;52.540;13.290;2023-03-09T03:57:58;24.37;;;18.43;;
6438;SDS011;3252;52.540;13.290;2023-03-09T04:00:00;29.60;;;19.00;;
6438;SDS011;3252;52.540;13.290;2023-03-09T04:02:12;23.37;;;17.00;;
6438;SDS011;3252;52.540;13.290;2023-03-09T04:04:14;21.30;;;15.73;;
6438;SDS011;3252;52.540;13.290;2023-03-09T04:06:22;25.93;;;16.97;;
6438;SDS011;3252;52.540;13.290;2023-03-09T04:08:25;24.83;;;18.80;;
6438;SDS011;3252;52.540;13.290;2023-03-09T04:10:29;24.87;;;17.73;;
6438;SDS011;3252;52.540;13.290;2023-03-09T04:12:31;26.73;;;18.00;;
6438;SDS011;3252;52.540;13.290;2023-03-09T04:14:33;24.17;;;18.87;;
6438;SDS011;3252;52.540;13.290;2023-03-09T04:16:38;23.90;;;16.97;;
6438;SDS011;3252;52.540;13.290;2023-03-09T04:18:41;25.67;;;19.37;;
6438;SDS011;3252;52.540;13.290;2023-03-09T04:20:43;26.17;;;18.97;;
6438;SDS011;3252;52.540;13.290;2023-03-09T04:22:47;24.90;;;20.17;;
6438;SDS011;3252;52.540;13.290;2023-03-09T04:24:52;23.10;;;16.40;;
6438;SDS011;3252;52.540;13.290;2023-03-09T04:26:55;26.10;;;19.43;;
6438;SDS011;3252;52.540;13.290;2023-03-09T04:29:17;26.87;;;18.47;;
6438;SDS011;3252;52.540;13.290;2023-03-09T04:31:20;25.93;;;20.30;;
6438;SDS011;3252;52.540;13.290;2023-03-09T04:33:22;26.03;;;19.03;;
6438;SDS011;3252;52.540;13.290;2023-03-09T04:35:25;29.60;;;19.50;;
6438;SDS011;3252;52.540;13.290;2023-03-09T04:37:30;26.20;;;18.73;;
6438;SDS011;3252;52.540;13.290;2023-03-09T04:39:33;24.50;;;19.40;;
6438;SDS011;3252;52.540;13.290;2023-03-09T04:41:37;28.77;;;19.97;;
6438;SDS011;3252;52.540;13.290;2023-03-09T04:43:43;27.20;;;20.50;;
6438;SDS011;3252;52.540;13.290;2023-03-09T04:45:47;28.60;;;20.10;;
6438;SDS011;3252;52.540;13.290;2023-03-09T04:47:50;25.27;;;19.27;;
6438;SDS011;3252;52.540;13.290;2023-03-09T04:49:54;28.57;;;19.60;;
6438;SDS011;3252;52.540;13.290;2023-03-09T04:51:57;31.60;;;20.37;;
6438;SDS011;3252;52.540;13.290;2023-03-09T04:53:59;24.87;;;20.00;;
6438;SDS011;3252;52.540;13.290;2023-03-09T04:56:02;27.10;;;18.80;;
6438;SDS011;3252;52.540;13.290;2023-03-09T04:58:13;25.87;;;19.73;;
6438;SDS011;3252;52.540;13.290;2023-03-09T05:00:16;27.40;;;20.33;;
6438;SDS011;3252;52.540;13.290;2023-03-09T05:02:20;31.77;;;20.53;;
6438;SDS011;3252;52.540;13.290;2023-03-09T05:04:22;27.93;;;19.73;;
6438;SDS011;3252;52.540;13.290;2023-03-09T05:06:29;29.97;;;21.43;;
6438;SDS011;3252;52.540;13.290;2023-03-09T05:08:31;26.30;;;21.27;;
6438;SDS011;3252;52.540;13.290;2023-03-09T05:10:35;31.83;;;22.97;;
6438;SDS011;3252;52.540;13.290;2023-03-09T05:12:37;31.47;;;23.77;;
6438;SDS011;3252;52.540;13.290;2023-03-09T05:14:45;28.07;;;22.37;;
6438;SDS011;3252;52.540;13.290;2023-03-09T05:16:50;30.93;;;20.60;;
6438;SDS011;3252;52.540;13.290;2023-03-09T05:18:55;27.33;;;21.87;;
6438;SDS011;3252;52.540;13.290;2023-03-09T05:21:04;27.67;;;21.77;;
6438;SDS011;3252;52.540;13.290;2023-03-09T05:23:08;28.83;;;21.67;;
6438;SDS011;3252;52.540;13.290;2023-03-09T05:25:11;27.70;;;21.80;;
6438;SDS011;3252;52.540;13.290;2023-03-09T05:27:13;30.60;;;22.23;;
6438;SDS011;3252;52.540;13.290;2023-03-09T05:29:16;29.77;;;22.00;;
6438;SDS011;3252;52.540;13.290;2023-03-09T05:31:22;34.77;;;24.50;;
6438;SDS011;3252;52.540;13.290;2023-03-09T05:33:24;32.27;;;21.50;;
6438;SDS011;3252;52.540;13.290;2023-03-09T05:35:27;27.20;;;21.90;;
6438;SDS011;3252;52.540;13.290;2023-03-09T05:37:31;27.10;;;22.00;;
6438;SDS011;3252;52.540;13.290;2023-03-09T05:39:36;30.00;;;22.60;;
6438;SDS011;3252;52.540;13.290;2023-03-09T05:41:39;28.43;;;21.03;;
6438;SDS011;3252;52.540;13.290;2023-03-09T05:43:50;28.00;;;20.57;;
6438;SDS011;3252;52.540;13.290;2023-03-09T05:45:55;27.50;;;21.97;;
6438;SDS011;3252;52.540;13.290;2023-03-09T05:47:59;27.57;;;20.90;;
6438;SDS011;3252;52.540;13.290;2023-03-09T05:50:02;30.60;;;23.50;;
6438;SDS011;3252;52.540;13.290;2023-03-09T05:52:04;27.33;;;21.27;;
6438;SDS011;3252;52.540;13.290;2023-03-09T05:54:10;27.47;;;19.13;;
6438;SDS011;3252;52.540;13.290;2023-03-09T05:56:15;25.57;;;20.80;;
6438;SDS011;3252;52.540;13.290;2023-03-09T05:58:18;26.77;;;18.53;;
6438;SDS011;3252;52.540;13.290;2023-03-09T06:00:21;29.73;;;20.67;;
6438;SDS011;3252;52.540;13.290;2023-03-09T06:02:32;26.00;;;20.80;;
6438;SDS011;3252;52.540;13.290;2023-03-09T06:04:36;27.90;;;21.70;;
6438;SDS011;3252;52.540;13.290;2023-03-09T06:06:41;22.90;;;17.83;;
6438;SDS011;3252;52.540;13.290;2023-03-09T06:08:43;25.93;;;18.97;;
6438;SDS011;3252;52.540;13.290;2023-03-09T06:10:48;26.20;;;19.00;;
6438;SDS011;3252;52.540;13.290;2023-03-09T06:12:50;26.30;;;19.00;;
6438;SDS011;3252;52.540;13.290;2023-03-09T06:14:54;28.27;;;19.77;;
6438;SDS011;3252;52.540;13.290;2023-03-09T06:16:59;27.73;;;19.27;;
6438;SDS011;3252;52.540;13.290;2023-03-09T06:19:02;25.00;;;18.47;;
6438;SDS011;3252;52.540;13.290;2023-03-09T06:21:07;22.20;;;17.70;;
6438;SDS011;3252;52.540;13.290;2023-03-09T06:23:11;22.53;;;19.23;;
6438;SDS011;3252;52.540;13.290;2023-03-09T06:25:14;22.07;;;17.23;;
6438;SDS011;3252;52.540;13.290;2023-03-09T06:27:16;23.70;;;18.23;;
6438;SDS011;3252;52.540;13.290;2023-03-09T06:29:19;23.80;;;17.90;;
6438;SDS011;3252;52.540;13.290;2023-03-09T06:31:23;22.47;;;17.10;;
6438;SDS011;3252;52.540;13.290;2023-03-09T06:33:30;25.00;;;16.90;;
6438;SDS011;3252;52.540;13.290;2023-03-09T06:35:33;22.20;;;16.63;;
6438;SDS011;3252;52.540;13.290;2023-03-09T06:37:38;20.37;;;16.30;;
6438;SDS011;3252;52.540;13.290;2023-03-09T06:39:55;22.30;;;17.27;;
6438;SDS011;3252;52.540;13.290;2023-03-09T06:41:59;24.90;;;17.50;;
6438;SDS011;3252;52.540;13.290;2023-03-09T06:44:13;23.73;;;15.83;;
6438;SDS011;3252;52.540;13.290;2023-03-09T06:46:18;20.23;;;15.53;;
6438;SDS011;3252;52.540;13.290;2023-03-09T06:48:38;22.27;;;16.43;;
6438;SDS011;3252;52.540;13.290;2023-03-09T06:50:52;23.47;;;17.13;;
6438;SDS011;3252;52.540;13.290;2023-03-09T06:55:44;21.90;;;15.80;;
6438;SDS011;3252;52.540;13.290;2023-03-09T06:57:53;22.00;;;15.60;;
6438;SDS011;3252;52.540;13.290;2023-03-09T06:59:59;20.47;;;15.43;;
6438;SDS011;3252;52.540;13.290;2023-03-09T07:02:02;21.10;;;14.53;;
6438;SDS011;3252;52.540;13.290;2023-03-09T07:04:05;18.67;;;14.93;;
6438;SDS011;3252;52.540;13.290;2023-03-09T07:06:07;19.30;;;14.70;;
6438;SDS011;3252;52.540;13.290;2023-03-09T07:08:09;18.83;;;14.93;;
6438;SDS011;3252;52.540;13.290;2023-03-09T07:10:13;20.43;;;14.97;;
6438;SDS011;3252;52.540;13.290;2023-03-09T07:12:15;18.90;;;13.93;;
6438;SDS011;3252;52.540;13.290;2023-03-09T07:14:18;17.93;;;14.30;;
6438;SDS011;3252;52.540;13.290;2023-03-09T07:16:20;20.00;;;14.23;;
6438;SDS011;3252;52.540;13.290;2023-03-09T07:18:23;18.13;;;14.00;;
6438;SDS011;3252;52.540;13.290;2023-03-09T07:20:25;18.17;;;13.40;;
6438;SDS011;3252;52.540;13.290;2023-03-09T07:22:28;21.87;;;14.90;;
6438;SDS011;3252;52.540;13.290;2023-03-09T07:24:30;18.10;;;12.87;;
6438;SDS011;3252;52.540;13.290;2023-03-09T07:26:36;19.23;;;12.30;;
6438;SDS011;3252;52.540;13.290;2023-03-09T07:28:38;21.97;;;13.63;;
6438;SDS011;3252;52.540;13.290;2023-03-09T07:30:40;15.80;;;12.40;;
6438;SDS011;3252;52.540;13.290;2023-03-09T07:32:43;18.30;;;13.63;;
6438;SDS011;3252;52.540;13.290;2023-03-09T07:34:45;19.30;;;13.70;;
6438;SDS011;3252;52.540;13.290;2023-03-09T07:36:47;18.77;;;14.10;;
6438;SDS011;3252;52.540;13.290;2023-03-09T07:38:50;18.50;;;13.83;;
6438;SDS011;3252;52.540;13.290;2023-03-09T07:40:56;17.27;;;13.27;;
6438;SDS011;3252;52.540;13.290;2023-03-09T07:42:59;18.77;;;13.20;;
6438;SDS011;3252;52.540;13.290;2023-03-09T07:45:23;18.00;;;12.30;;
6438;SDS011;3252;52.540;13.290;2023-03-09T07:47:29;17.10;;;13.37;;
6438;SDS011;3252;52.540;13.290;2023-03-09T07:49:33;17.93;;;12.73;;
6438;SDS011;3252;52.540;13.290;2023-03-09T07:51:35;16.63;;;12.23;;
6438;SDS011;3252;52.540;13.290;2023-03-09T07:53:38;19.30;;;12.60;;
6438;SDS011;3252;52.540;13.290;2023-03-09T07:55:40;18.40;;;13.27;;
6438;SDS011;3252;52.540;13.290;2023-03-09T07:57:43;19.10;;;12.07;;
6438;SDS011;3252;52.540;13.290;2023-03-09T07:59:47;15.30;;;11.97;;
6438;SDS011;3252;52.540;13.290;2023-03-09T08:01:49;21.47;;;11.97;;
6438;SDS011;3252;52.540;13.290;2023-03-09T08:03:51;18.17;;;12.70;;
6438;SDS011;3252;52.540;13.290;2023-03-09T08:05:53;15.63;;;12.27;;
6438;SDS011;3252;52.540;13.290;2023-03-09T08:07:56;16.47;;;13.10;;
6438;SDS011;3252;52.540;13.290;2023-03-09T08:09:58;20.93;;;12.73;;
6438;SDS011;3252;52.540;13.290;2023-03-09T08:12:00;19.13;;;13.17;;
6438;SDS011;3252;52.540;13.290;2023-03-09T08:14:02;15.17;;;11.67;;
6438;SDS011;3252;52.540;13.290;2023-03-09T08:16:07;16.77;;;11.67;;
6438;SDS011;3252;52.540;13.290;2023-03-09T08:18:11;13.63;;;11.53;;
6438;SDS011;3252;52.540;13.290;2023-03-09T08:20:14;16.00;;;11.93;;
6438;SDS011;3252;52.540;13.290;2023-03-09T08:22:16;16.40;;;11.83;;
6438;SDS011;3252;52.540;13.290;2023-03-09T08:24:18;15.53;;;12.23;;
6438;SDS011;3252;52.540;13.290;2023-03-09T08:26:21;14.63;;;11.00;;
6438;SDS011;3252;52.540;13.290;2023-03-09T08:28:23;17.67;;;12.60;;
6438;SDS011;3252;52.540;13.290;2023-03-09T08:30:26;15.83;;;12.37;;
6438;SDS011;3252;52.540;13.290;2023-03-09T08:32:31;14.17;;;11.03;;
6438;SDS011;3252;52.540;13.290;2023-03-09T08:34:33;16.70;;;11.40;;
6438;SDS011;3252;52.540;13.290;2023-03-09T08:36:36;15.80;;;12.47;;
6438;SDS011;3252;52.540;13.290;2023-03-09T08:38:38;19.67;;;12.10;;
6438;SDS011;3252;52.540;13.290;2023-03-09T08:40:40;19.93;;;12.50;;
6438;SDS011;3252;52.540;13.290;2023-03-09T08:42:44;15.97;;;12.33;;
6438;SDS011;3252;52.540;13.290;2023-03-09T08:44:46;15.93;;;12.80;;
6438;SDS011;3252;52.540;13.290;2023-03-09T08:46:48;18.10;;;13.97;;
6438;SDS011;3252;52.540;13.290;2023-03-09T08:48:52;15.97;;;13.87;;
6438;SDS011;3252;52.540;13.290;2023-03-09T08:50:54;16.70;;;13.57;;
6438;SDS011;3252;52.540;13.290;2023-03-09T08:52:57;14.90;;;13.23;;
6438;SDS011;3252;52.540;13.290;2023-03-09T08:54:59;17.13;;;13.13;;
6438;SDS011;3252;52.540;13.290;2023-03-09T08:57:04;15.40;;;12.97;;
6438;SDS011;3252;52.540;13.290;2023-03-09T08:59:06;18.33;;;14.40;;
6438;SDS011;3252;52.540;13.290;2023-03-09T09:01:08;15.53;;;13.20;;
6438;SDS011;3252;52.540;13.290;2023-03-09T09:03:11;18.40;;;14.00;;
6438;SDS011;3252;52.540;13.290;2023-03-09T09:05:15;19.20;;;13.97;;
6438;SDS011;3252;52.540;13.290;2023-03-09T09:07:17;16.77;;;14.33;;
6438;SDS011;3252;52.540;13.290;2023-03-09T09:09:21;19.13;;;14.57;;
6438;SDS011;3252;52.540;13.290;2023-03-09T09:11:23;18.57;;;14.57;;
6438;SDS011;3252;52.540;13.290;2023-03-09T09:13:25;16.80;;;14.63;;
6438;SDS011;3252;52.540;13.290;2023-03-09T09:15:28;19.93;;;15.47;;
6438;SDS011;3252;52.540;13.290;2023-03-09T09:17:31;16.77;;;13.97;;
6438;SDS011;3252;52.540;13.290;2023-03-09T09:19:33;17.97;;;14.80;;
6438;SDS011;3252;52.540;13.290;2023-03-09T09:21:36;20.00;;;15.97;;
6438;SDS011;3252;52.540;13.290;2023-03-09T09:23:39;17.30;;;14.07;;
6438;SDS011;3252;52.540;13.290;2023-03-09T09:25:43;20.03;;;15.73;;
6438;SDS011;3252;52.540;13.290;2023-03-09T09:27:45;18.00;;;15.10;;
6438;SDS011;3252;52.540;13.290;2023-03-09T09:29:50;22.03;;;15.67;;
6438;SDS011;3252;52.540;13.290;2023-03-09T09:31:59;21.57;;;15.60;;
6438;SDS011;3252;52.540;13.290;2023-03-09T09:34:21;23.37;;;16.07;;
6438;SDS011;3252;52.540;13.290;2023-03-09T09:36:33;18.97;;;14.83;;
6438;SDS011;3252;52.540;13.290;2023-03-09T09:38:51;20.93;;;16.53;;
6438;SDS011;3252;52.540;13.290;2023-03-09T09:40:54;19.63;;;16.33;;
6438;SDS011;3252;52.540;13.290;2023-03-09T09:43:05;22.33;;;17.13;;
6438;SDS011;3252;52.540;13.290;2023-03-09T09:45:21;18.60;;;15.80;;
6438;SDS011;3252;52.540;13.290;2023-03-09T09:47:31;24.20;;;15.97;;
6438;SDS011;3252;52.540;13.290;2023-03-09T09:49:43;23.60;;;16.60;;
6438;SDS011;3252;52.540;13.290;2023-03-09T09:51:53;20.30;;;16.37;;
6438;SDS011;3252;52.540;13.290;2023-03-09T09:54:05;22.23;;;17.53;;
6438;SDS011;3252;52.540;13.290;2023-03-09T09:56:15;20.00;;;16.80;;
6438;SDS011;3252;52.540;13.290;2023-03-09T09:58:25;19.50;;;17.27;;
6438;SDS011;3252;52.540;13.290;2023-03-09T10:00:34;20.27;;;16.47;;
6438;SDS011;3252;52.540;13.290;2023-03-09T10:02:50;19.77;;;16.13;;
6438;SDS011;3252;52.540;13.290;2023-03-09T10:05:03;20.50;;;16.37;;
6438;SDS011;3252;52.540;13.290;2023-03-09T10:07:23;23.60;;;17.67;;
6438;SDS011;3252;52.540;13.290;2023-03-09T10:09:32;19.63;;;16.03;;
6438;SDS011;3252;52.540;13.290;2023-03-09T10:11:40;21.63;;;16.17;;
6438;SDS011;3252;52.540;13.290;2023-03-09T10:13:46;22.80;;;17.23;;
6438;SDS011;3252;52.540;13.290;2023-03-09T10:15:51;23.00;;;16.97;;
6438;SDS011;3252;52.540;13.290;2023-03-09T10:17:56;21.33;;;15.73;;
6438;SDS011;3252;52.540;13.290;2023-03-09T10:20:09;19.97;;;16.27;;
6438;SDS011;3252;52.540;13.290;2023-03-09T10:22:17;17.93;;;15.13;;
6438;SDS011;3252;52.540;13.290;2023-03-09T10:24:24;21.93;;;16.63;;
6438;SDS011;3252;52.540;13.290;2023-03-09T10:29:01;25.37;;;17.53;;
6438;SDS011;3252;52.540;13.290;2023-03-09T10:31:09;21.83;;;16.67;;
6438;SDS011;3252;52.540;13.290;2023-03-09T10:33:16;21.77;;;16.03;;
6438;SDS011;3252;52.540;13.290;2023-03-09T10:35:22;23.20;;;16.77;;
6438;SDS011;3252;52.540;13.290;2023-03-09T10:37:32;25.67;;;17.40;;
6438;SDS011;3252;52.540;13.290;2023-03-09T10:39:38;23.83;;;17.67;;
6438;SDS011;3252;52.540;13.290;2023-03-09T10:41:44;25.77;;;18.77;;
6438;SDS011;3252;52.540;13.290;2023-03-09T10:43:46;22.93;;;17.93;;
6438;SDS011;3252;52.540;13.290;2023-03-09T10:45:48;21.97;;;18.70;;
6438;SDS011;3252;52.540;13.290;2023-03-09T10:47:52;24.23;;;17.07;;
6438;SDS011;3252;52.540;13.290;2023-03-09T10:50:06;21.13;;;17.13;;
6438;SDS011;3252;52.540;13.290;2023-03-09T10:52:16;22.77;;;16.57;;
6438;SDS011;3252;52.540;13.290;2023-03-09T10:54:21;23.63;;;17.17;;
6438;SDS011;3252;52.540;13.290;2023-03-09T10:56:28;25.77;;;16.67;;
6438;SDS011;3252;52.540;13.290;2023-03-09T10:58:31;21.57;;;17.60;;
6438;SDS011;3252;52.540;13.290;2023-03-09T11:00:33;27.03;;;19.63;;
6438;SDS011;3252;52.540;13.290;2023-03-09T11:02:36;21.23;;;16.77;;
6438;SDS011;3252;52.540;13.290;2023-03-09T11:04:39;21.70;;;17.47;;
6438;SDS011;3252;52.540;13.290;2023-03-09T11:06:41;23.43;;;17.77;;
6438;SDS011;3252;52.540;13.290;2023-03-09T11:08:44;20.47;;;17.47;;
6438;SDS011;3252;52.540;13.290;2023-03-09T11:11:03;26.67;;;19.13;;
6438;SDS011;3252;52.540;13.290;2023-03-09T11:13:16;22.47;;;17.77;;
6438;SDS011;3252;52.540;13.290;2023-03-09T11:15:25;29.07;;;19.17;;
6438;SDS011;3252;52.540;13.290;2023-03-09T11:17:33;26.63;;;20.80;;
6438;SDS011;3252;52.540;13.290;2023-03-09T11:19:38;26.97;;;18.77;;
6438;SDS011;3252;52.540;13.290;2023-03-09T11:21:43;28.57;;;20.13;;
6438;SDS011;3252;52.540;13.290;2023-03-09T11:23:51;25.10;;;18.53;;
6438;SDS011;3252;52.540;13.290;2023-03-09T11:25:57;23.27;;;19.67;;
6438;SDS011;3252;52.540;13.290;2023-03-09T11:28:15;26.27;;;19.73;;
6438;SDS011;3252;52.540;13.290;2023-03-09T11:30:25;23.10;;;17.83;;
6438;SDS011;3252;52.540;13.290;2023-03-09T11:32:30;24.10;;;18.80;;
6438;SDS011;3252;52.540;13.290;2023-03-09T11:34:33;24.43;;;19.10;;
6438;SDS011;3252;52.540;13.290;2023-03-09T11:36:38;22.93;;;18.43;;
6438;SDS011;3252;52.540;13.290;2023-03-09T11:38:44;26.27;;;19.70;;
6438;SDS011;3252;52.540;13.290;2023-03-09T11:40:48;27.53;;;19.90;;
6438;SDS011;3252;52.540;13.290;2023-03-09T11:43:07;25.10;;;19.53;;
6438;SDS011;3252;52.540;13.290;2023-03-09T11:45:16;22.53;;;18.80;;
6438;SDS011;3252;52.540;13.290;2023-03-09T11:47:25;25.30;;;18.20;;
6438;SDS011;3252;52.540;13.290;2023-03-09T11:49:32;23.90;;;19.07;;
6438;SDS011;3252;52.540;13.290;2023-03-09T11:51:37;28.83;;;19.97;;
6438;SDS011;3252;52.540;13.290;2023-03-09T11:53:43;25.07;;;18.57;;
6438;SDS011;3252;52.540;13.290;2023-03-09T11:55:52;26.10;;;20.70;;
6438;SDS011;3252;52.540;13.290;2023-03-09T11:57:57;23.60;;;20.00;;
6438;SDS011;3252;52.540;13.290;2023-03-09T12:00:05;26.43;;;19.67;;
6438;SDS011;3252;52.540;13.290;2023-03-09T12:02:14;28.20;;;19.67;;
6438;SDS011;3252;52.540;13.290;2023-03-09T12:04:20;23.60;;;19.00;;
6438;SDS011;3252;52.540;13.290;2023-03-09T12:06:27;27.47;;;19.60;;
6438;SDS011;3252;52.540;13.290;2023-03-09T12:08:53;28.07;;;21.00;;
6438;SDS011;3252;52.540;13.290;2023-03-09T12:10:59;24.57;;;20.73;;
6438;SDS011;3252;52.540;13.290;2023-03-09T12:13:08;22.40;;;19.87;;
6438;SDS011;3252;52.540;13.290;2023-03-09T12:15:15;25.50;;;20.13;;
6438;SDS011;3252;52.540;13.290;2023-03-09T12:17:21;27.03;;;20.00;;
6438;SDS011;3252;52.540;13.290;2023-03-09T12:19:28;24.00;;;20.60;;
6438;SDS011;3252;52.540;13.290;2023-03-09T12:21:33;27.13;;;21.80;;
6438;SDS011;3252;52.540;13.290;2023-03-09T12:23:42;27.33;;;22.70;;
6438;SDS011;3252;52.540;13.290;2023-03-09T12:25:53;26.47;;;21.67;;
6438;SDS011;3252;52.540;13.290;2023-03-09T12:28:00;29.77;;;22.37;;
6438;SDS011;3252;52.540;13.290;2023-03-09T12:30:08;27.07;;;21.10;;